createdAt,value
2023-05-05T00:39:07.711Z,9.40
2023-05-05T00:46:34.066Z,9.30
2023-05-05T00:53:57.545Z,8.70
2023-05-05T00:56:27.500Z,9.40
2023-05-05T01:06:42.019Z,9.30
2023-05-05T01:09:14.957Z,9.30
2023-05-05T01:11:51.779Z,9.30
2023-05-05T01:14:33.203Z,12.00
2023-05-05T01:17:08.192Z,9.30
2023-05-05T01:20:02.088Z,9.30
2023-05-05T01:22:38.394Z,9.20
2023-05-05T01:25:14.646Z,8.50
2023-05-05T01:27:56.061Z,9.30
2023-05-05T01:30:35.617Z,9.40
2023-05-05T01:33:08.441Z,9.30
2023-05-05T01:35:44.000Z,9.40
2023-05-05T01:38:30.484Z,10.10
2023-05-05T01:41:12.801Z,8.90
2023-05-05T01:43:44.002Z,9.40
2023-05-05T01:46:13.370Z,9.10
2023-05-05T01:48:44.303Z,9.00
2023-05-05T01:51:13.252Z,9.10
2023-05-05T01:53:41.802Z,9.00
2023-05-05T01:56:11.867Z,8.70
2023-05-05T01:58:41.845Z,9.00
2023-05-05T02:03:39.231Z,9.00
2023-05-05T02:06:08.554Z,8.70
2023-05-05T02:08:39.502Z,9.00
2023-05-05T02:11:09.237Z,8.90
2023-05-05T02:13:40.153Z,8.90
2023-05-05T02:16:08.506Z,9.30
2023-05-05T02:18:36.866Z,10.60
2023-05-05T02:23:33.565Z,9.00
2023-05-05T02:26:06.224Z,8.90
2023-05-05T02:28:55.796Z,8.80
2023-05-05T02:31:26.463Z,8.80
2023-05-05T02:33:57.194Z,10.30
2023-05-05T02:36:28.744Z,8.70
2023-05-05T02:39:19.837Z,8.70
2023-05-05T02:41:49.723Z,8.70
2023-05-05T02:44:26.234Z,8.50
2023-05-05T02:46:55.012Z,8.60
2023-05-05T02:49:24.563Z,8.40
2023-05-05T02:51:58.182Z,8.70
2023-05-05T02:54:33.289Z,8.80
2023-05-05T02:57:04.111Z,8.60
2023-05-05T02:59:42.494Z,8.60
2023-05-05T03:02:15.214Z,8.70
2023-05-05T03:04:48.770Z,8.50
2023-05-05T03:07:25.197Z,9.00
2023-05-05T03:10:32.309Z,8.50
2023-05-05T03:13:05.001Z,8.70
2023-05-05T03:15:43.128Z,8.70
2023-05-05T03:18:12.449Z,8.60
2023-05-05T03:23:15.620Z,8.70
2023-05-05T03:25:46.434Z,8.60
2023-05-05T03:48:28.899Z,8.50
2023-05-05T03:58:22.970Z,8.60
2023-05-05T04:00:50.596Z,8.80
2023-05-05T04:08:16.424Z,9.00
2023-05-05T04:13:12.066Z,8.70
2023-05-05T04:15:45.199Z,8.80
2023-05-05T04:23:10.989Z,8.70
2023-05-05T04:45:29.420Z,8.70
2023-05-05T04:50:25.691Z,8.70
2023-05-05T05:20:05.143Z,9.20
2023-05-05T05:25:06.509Z,9.50
2023-05-05T05:37:31.700Z,8.90
2023-05-05T05:47:28.327Z,9.50
2023-05-05T06:14:41.966Z,9.10
2023-05-05T06:19:42.293Z,9.20
2023-05-05T06:22:10.208Z,9.30
2023-05-05T06:24:38.312Z,8.90
2023-05-05T06:27:05.718Z,9.00
2023-05-05T06:29:33.378Z,9.20
2023-05-05T06:39:24.616Z,10.10
2023-05-05T06:41:52.085Z,9.20
2023-05-05T07:06:29.432Z,9.20
2023-05-05T07:08:57.987Z,9.40
2023-05-05T07:23:46.318Z,8.90
2023-05-05T07:26:15.257Z,9.70
2023-05-05T07:31:11.500Z,9.10
2023-05-05T07:33:39.229Z,9.50
2023-05-05T07:36:06.707Z,9.20
2023-05-05T07:58:18.805Z,10.20
2023-05-05T08:00:46.218Z,10.20
2023-05-05T08:03:13.906Z,10.80
2023-05-05T08:05:41.324Z,11.30
2023-05-05T08:08:08.985Z,11.70
2023-05-05T08:10:36.236Z,11.60
2023-05-05T08:15:31.861Z,11.90
2023-05-05T08:17:59.322Z,12.80
2023-05-05T08:20:28.953Z,12.70
2023-05-05T08:22:56.484Z,12.00
2023-05-05T08:25:24.290Z,13.30
2023-05-05T08:27:51.677Z,11.70
2023-05-05T08:30:21.049Z,12.40
2023-05-05T08:32:48.992Z,12.90
2023-05-05T08:35:16.356Z,12.30
2023-05-05T08:37:43.924Z,12.10
2023-05-05T08:40:14.735Z,11.50
2023-05-05T08:42:42.715Z,11.90
2023-05-05T08:45:11.633Z,11.90
2023-05-05T08:47:40.265Z,11.50
2023-05-05T08:50:11.069Z,11.40
2023-05-05T08:52:45.675Z,11.30
2023-05-05T08:55:24.743Z,11.10
2023-05-05T08:57:57.971Z,11.10
2023-05-05T09:00:29.461Z,11.00
2023-05-05T09:02:59.339Z,10.80
2023-05-05T09:05:27.793Z,10.90
2023-05-05T09:07:55.939Z,11.00
2023-05-05T09:10:24.822Z,11.00
2023-05-05T09:12:53.129Z,11.30
2023-05-05T09:17:48.750Z,11.30
2023-05-05T09:22:46.870Z,11.90
2023-05-05T09:25:16.337Z,11.50
2023-05-05T09:27:47.528Z,11.50
2023-05-05T09:30:17.886Z,12.20
2023-05-05T09:32:46.741Z,12.40
2023-05-05T09:35:14.780Z,12.00
2023-05-05T09:37:42.804Z,11.90
2023-05-05T09:40:11.052Z,12.70
2023-05-05T09:42:40.079Z,11.90
2023-05-05T09:45:19.703Z,12.00
2023-05-05T09:47:48.279Z,12.10
2023-05-05T09:50:18.992Z,11.90
2023-05-05T09:53:01.184Z,14.80
2023-05-05T09:55:29.195Z,12.30
2023-05-05T09:57:56.845Z,12.20
2023-05-05T10:00:38.950Z,12.50
2023-05-05T10:03:06.911Z,12.70
2023-05-05T10:05:47.425Z,13.00
2023-05-05T10:08:15.081Z,13.10
2023-05-05T10:10:52.591Z,13.30
2023-05-05T10:13:22.462Z,13.70
2023-05-05T10:15:52.411Z,14.90
2023-05-05T10:18:22.253Z,14.30
2023-05-05T10:21:02.296Z,13.60
2023-05-05T10:23:55.181Z,13.70
2023-05-05T10:26:23.489Z,13.80
2023-05-05T10:28:55.745Z,13.70
2023-05-05T10:31:49.306Z,13.80
2023-05-05T10:34:41.012Z,13.70
2023-05-05T10:37:08.768Z,13.60
2023-05-05T10:39:38.033Z,13.40
2023-05-05T10:42:05.343Z,13.40
2023-05-05T10:44:34.014Z,13.00
2023-05-05T10:47:03.331Z,13.30
2023-05-05T10:50:09.810Z,12.20
2023-05-05T10:53:19.109Z,12.80
2023-05-05T10:55:54.830Z,13.10
2023-05-05T10:58:59.263Z,13.00
2023-05-05T11:01:33.432Z,12.80
2023-05-05T11:04:24.084Z,13.30
2023-05-05T11:07:12.708Z,12.80
2023-05-05T11:09:56.499Z,12.90
2023-05-05T11:12:24.412Z,13.10
2023-05-05T11:15:31.839Z,13.40
2023-05-05T11:18:03.931Z,13.40
2023-05-05T11:21:00.012Z,12.80
2023-05-05T11:23:29.296Z,12.70
2023-05-05T11:26:00.444Z,12.80
2023-05-05T11:28:31.240Z,12.60
2023-05-05T11:31:00.029Z,12.30
2023-05-05T11:33:40.460Z,12.60
2023-05-05T11:36:12.301Z,12.60
2023-05-05T11:38:52.519Z,12.60
2023-05-05T11:41:32.265Z,12.60
2023-05-05T11:44:14.541Z,12.50
2023-05-05T11:47:05.008Z,12.50
2023-05-05T11:49:37.761Z,12.60
2023-05-05T11:52:10.625Z,12.80
2023-05-05T11:54:47.996Z,12.80
2023-05-05T11:57:17.785Z,12.90
2023-05-05T11:59:57.240Z,13.10
2023-05-05T12:02:31.361Z,13.30
2023-05-05T12:05:01.447Z,13.40
2023-05-05T12:07:31.208Z,13.50
2023-05-05T12:09:59.640Z,13.60
2023-05-05T12:12:36.357Z,13.60
2023-05-05T12:15:06.552Z,13.60
2023-05-05T12:17:42.616Z,13.60
2023-05-05T12:20:12.418Z,13.80
2023-05-05T12:22:40.855Z,13.90
2023-05-05T12:25:09.708Z,14.10
2023-05-05T12:27:37.255Z,14.10
2023-05-05T12:30:16.761Z,14.10
2023-05-05T12:32:45.332Z,14.30
2023-05-05T12:35:13.882Z,14.30
2023-05-05T12:37:42.620Z,14.30
2023-05-05T12:40:44.243Z,14.50
2023-05-05T12:43:33.666Z,14.70
2023-05-05T12:46:13.146Z,14.70
2023-05-05T12:48:46.410Z,14.90
2023-05-05T12:51:23.511Z,15.50
2023-05-05T12:54:11.951Z,15.80
2023-05-05T12:56:42.009Z,16.30
2023-05-05T12:59:12.614Z,16.30
2023-05-05T13:01:53.943Z,16.10
2023-05-05T13:04:23.481Z,16.10
2023-05-05T13:07:13.092Z,16.30
2023-05-05T13:09:41.275Z,15.90
2023-05-05T13:12:12.057Z,16.50
2023-05-05T13:14:40.958Z,16.90
2023-05-05T13:17:09.044Z,17.60
2023-05-05T13:19:42.197Z,17.90
2023-05-05T13:22:10.538Z,17.70
2023-05-05T13:24:50.763Z,17.60
2023-05-05T13:27:20.845Z,17.30
2023-05-05T13:29:48.401Z,17.10
2023-05-05T13:32:16.220Z,17.10
2023-05-05T13:34:44.361Z,17.00
2023-05-05T13:37:11.936Z,17.00
2023-05-05T13:39:39.271Z,16.60
2023-05-05T13:42:07.283Z,16.40
2023-05-05T13:44:35.746Z,16.20
2023-05-05T13:47:03.952Z,16.30
2023-05-05T13:49:32.448Z,16.60
2023-05-05T13:52:01.745Z,16.90
2023-05-05T13:54:29.538Z,16.90
2023-05-05T13:56:58.243Z,17.10
2023-05-05T13:59:26.463Z,17.30
2023-05-05T14:01:54.375Z,17.10
2023-05-05T14:04:22.983Z,16.70
2023-05-05T14:06:54.903Z,15.80
2023-05-05T14:09:22.603Z,15.50
2023-05-05T14:11:50.140Z,15.70
2023-05-05T14:14:18.243Z,15.90
2023-05-05T14:19:17.921Z,15.50
2023-05-05T14:21:45.580Z,15.60
2023-05-05T14:24:13.114Z,15.90
2023-05-05T14:26:40.919Z,16.10
2023-05-05T14:29:08.448Z,16.70
2023-05-05T14:31:37.262Z,16.80
2023-05-05T14:34:05.425Z,17.10
2023-05-05T14:36:33.088Z,16.60
2023-05-05T14:39:00.823Z,16.60
2023-05-05T14:41:28.588Z,16.50
2023-05-05T14:43:57.346Z,16.70
2023-05-05T14:46:26.548Z,16.70
2023-05-05T14:48:54.227Z,16.50
2023-05-05T14:51:22.044Z,16.50
2023-05-05T14:53:50.071Z,16.50
2023-05-05T14:56:18.095Z,16.40
2023-05-05T14:58:47.310Z,16.30
2023-05-05T15:01:16.303Z,16.00
2023-05-05T15:03:44.058Z,15.70
2023-05-05T15:06:11.832Z,15.70
2023-05-05T15:08:39.370Z,15.60
2023-05-05T15:11:07.224Z,15.80
2023-05-05T15:13:36.478Z,15.70
2023-05-05T15:16:04.472Z,15.70
2023-05-05T15:18:31.897Z,15.50
2023-05-05T15:20:59.920Z,15.20
2023-05-05T15:23:27.272Z,15.10
2023-05-05T15:25:55.391Z,14.90
2023-05-05T15:28:22.755Z,15.00
2023-05-05T15:30:50.970Z,15.00
2023-05-05T15:33:18.607Z,15.10
2023-05-05T15:35:46.760Z,15.10
2023-05-05T15:38:14.586Z,15.10
2023-05-05T15:40:45.009Z,15.10
2023-05-05T15:43:13.302Z,15.10
2023-05-05T15:45:41.856Z,15.20
2023-05-05T15:48:09.450Z,15.00
2023-05-05T15:50:37.405Z,14.90
2023-05-05T15:53:05.204Z,15.00
2023-05-05T15:55:33.257Z,14.70
2023-05-05T15:58:01.172Z,14.70
2023-05-05T16:00:29.706Z,14.60
2023-05-05T16:02:57.401Z,14.60
2023-05-05T16:05:25.427Z,14.60
2023-05-05T16:07:53.873Z,14.70
2023-05-05T16:10:22.106Z,15.30
2023-05-05T16:12:49.881Z,14.80
2023-05-05T16:15:17.730Z,14.60
2023-05-05T16:17:45.291Z,14.50
2023-05-05T16:20:13.352Z,14.20
2023-05-05T16:22:41.979Z,14.20
2023-05-05T16:25:10.701Z,13.80
2023-05-05T16:27:38.994Z,14.10
2023-05-05T16:30:08.958Z,13.80
2023-05-05T16:32:36.711Z,13.70
2023-05-05T16:35:07.444Z,13.60
2023-05-05T16:37:35.177Z,13.40
2023-05-05T16:40:05.794Z,13.30
2023-05-05T16:42:33.433Z,13.20
2023-05-05T16:45:01.481Z,13.00
2023-05-05T16:47:29.005Z,13.10
2023-05-05T16:49:56.762Z,12.70
2023-05-05T16:52:24.136Z,12.70
2023-05-05T16:54:55.772Z,12.30
2023-05-05T16:57:23.874Z,12.60
2023-05-05T16:59:51.920Z,12.50
2023-05-05T17:02:19.429Z,12.50
2023-05-05T17:04:47.328Z,12.40
2023-05-05T17:07:15.351Z,12.40
2023-05-05T17:09:43.159Z,12.20
2023-05-05T17:12:11.621Z,12.00
2023-05-05T17:14:40.229Z,11.60
2023-05-05T17:17:07.870Z,11.70
2023-05-05T17:19:36.015Z,11.70
2023-05-05T17:22:03.827Z,11.60
2023-05-05T17:24:31.673Z,11.60
2023-05-05T17:26:59.709Z,11.40
2023-05-05T17:29:27.205Z,12.20
2023-05-05T17:31:55.477Z,11.30
2023-05-05T17:34:23.229Z,11.20
2023-05-05T17:36:50.573Z,11.10
2023-05-05T17:39:18.185Z,11.00
2023-05-05T17:41:45.609Z,10.90
2023-05-05T17:44:13.462Z,10.90
2023-05-05T17:46:40.859Z,10.80
2023-05-05T17:49:08.545Z,10.70
2023-05-05T17:51:36.203Z,10.60
2023-05-05T17:54:05.412Z,10.50
2023-05-05T17:56:35.210Z,10.50
2023-05-05T18:01:30.814Z,10.30
2023-05-05T18:03:58.901Z,10.20
2023-05-05T18:06:27.081Z,10.10
2023-05-05T18:08:54.817Z,10.60
2023-05-05T18:11:26.877Z,10.00
2023-05-05T18:13:56.167Z,9.90
2023-05-05T18:16:23.533Z,9.40
2023-05-05T18:18:51.696Z,10.10
2023-05-05T18:21:19.916Z,9.40
2023-05-05T18:23:47.876Z,9.60
2023-05-05T18:26:15.675Z,9.10
2023-05-05T18:28:43.283Z,9.60
2023-05-05T18:31:11.058Z,9.10
2023-05-05T18:33:39.045Z,9.30
2023-05-05T18:36:08.075Z,9.30
2023-05-05T18:38:36.658Z,9.20
2023-05-05T18:41:04.323Z,9.10
2023-05-05T18:43:32.222Z,9.30
2023-05-05T18:45:59.835Z,9.10
2023-05-05T18:48:27.972Z,8.90
2023-05-05T18:51:00.317Z,9.00
2023-05-05T18:53:29.025Z,9.30
2023-05-05T18:55:57.160Z,8.80
2023-05-05T18:58:25.274Z,8.80
2023-05-05T19:00:52.906Z,9.20
2023-05-05T19:05:49.735Z,8.60
2023-05-05T19:08:17.323Z,8.60
2023-05-05T19:15:40.840Z,8.70
2023-05-05T19:18:08.788Z,8.40
2023-05-05T19:20:38.827Z,8.30
2023-05-05T19:23:07.231Z,8.30
2023-05-05T19:25:34.884Z,8.20
2023-05-05T19:28:02.805Z,8.20
2023-05-05T19:30:30.330Z,8.10
2023-05-05T19:32:58.297Z,9.90
2023-05-05T19:35:26.242Z,8.00
2023-05-05T19:37:56.068Z,7.90
2023-05-05T19:40:23.840Z,7.90
2023-05-05T19:42:52.056Z,7.90
2023-05-05T19:45:19.871Z,7.90
2023-05-05T19:47:47.634Z,7.90
2023-05-05T19:50:18.246Z,7.90
2023-05-05T19:52:45.881Z,7.70
2023-05-05T19:55:14.984Z,7.70
2023-05-05T19:57:42.590Z,7.70
2023-05-05T20:00:11.196Z,7.70
2023-05-05T20:02:39.522Z,7.70
2023-05-05T20:05:07.346Z,7.60
2023-05-05T20:07:35.984Z,7.50
2023-05-05T20:10:03.527Z,7.50
2023-05-05T20:12:31.364Z,7.40
2023-05-05T20:15:02.785Z,7.40
2023-05-05T20:17:30.778Z,7.30
2023-05-05T20:19:58.304Z,7.70
2023-05-05T20:22:26.726Z,7.40
2023-05-05T20:24:54.590Z,7.30
2023-05-05T20:27:22.389Z,7.20
2023-05-05T20:29:50.191Z,7.20
2023-05-05T20:32:20.717Z,7.10
2023-05-05T20:34:50.244Z,7.30
2023-05-05T20:37:28.373Z,6.90
2023-05-05T20:40:02.749Z,7.10
2023-05-05T20:42:33.740Z,7.00
2023-05-05T20:47:35.614Z,6.90
2023-05-05T20:50:05.852Z,6.50
2023-05-05T20:55:07.395Z,6.80
2023-05-05T21:00:06.662Z,6.90
2023-05-05T21:05:07.286Z,7.50
2023-05-05T21:10:05.690Z,6.70
2023-05-05T21:12:36.088Z,6.60
2023-05-05T21:15:05.578Z,6.70
2023-05-05T21:22:31.211Z,6.50
2023-05-05T21:25:19.827Z,7.10
2023-05-05T21:27:48.909Z,6.50
2023-05-05T21:30:16.922Z,6.30
2023-05-05T21:32:45.962Z,6.50
2023-05-05T21:35:15.600Z,7.20
2023-05-05T21:37:46.019Z,6.70
2023-05-05T22:02:44.596Z,6.20
2023-05-05T22:10:09.188Z,6.40
2023-05-05T22:27:25.708Z,6.50
2023-05-05T22:47:09.997Z,5.80
2023-05-05T22:59:29.743Z,5.90
2023-05-05T23:01:57.307Z,5.80
2023-05-05T23:04:24.706Z,5.80
2023-05-05T23:09:19.876Z,5.80
2023-05-05T23:14:16.945Z,5.70
2023-05-05T23:19:13.675Z,5.80
2023-05-05T23:21:51.960Z,6.30
2023-05-05T23:24:20.358Z,6.00
2023-05-05T23:29:15.767Z,5.80
2023-05-05T23:31:43.323Z,6.20
2023-05-05T23:53:56.949Z,6.10
2023-05-05T23:58:53.230Z,6.10
